Time;durP1;ratioP1;P1;durP2;ratioP2;P2;SDS_P1;SDS_P2;PMS_P1;PMS_P2;Temp;Humidity;BMP_temperature;BMP_pressure;BME280_temperature;BME280_humidity;BME280_pressure;Samples;Min_cycle;Max_cycle;Signal;HPM_P1;HPM_P2
2023/08/08 04:29:54;;;;;;;2.20;2.00;;;;;;;;;;4908049;28;20272;-77
2023/08/08 04:32:19;;;;;;;1.90;1.57;;;;;;;;;;5022718;28;20190;-77
2023/08/08 04:34:45;;;;;;;2.20;1.53;;;;;;;;;;5026463;28;20178;-78
2023/08/08 04:37:10;;;;;;;3.00;1.80;;;;;;;;;;5016622;28;20192;-78
2023/08/08 04:39:35;;;;;;;5.03;3.00;;;;;;;;;;5024449;28;20198;-77
2023/08/08 04:42:00;;;;;;;2.47;2.27;;;;;;;;;;5019207;28;20229;-77
2023/08/08 04:44:26;;;;;;;2.27;1.70;;;;;;;;;;5014701;28;20249;-77
2023/08/08 04:46:51;;;;;;;1.63;1.53;;;;;;;;;;5022619;28;20195;-77
2023/08/08 04:49:16;;;;;;;1.90;1.80;;;;;;;;;;5016672;28;20183;-77
2023/08/08 04:51:41;;;;;;;1.83;1.47;;;;;;;;;;5018031;28;20257;-78
2023/08/08 04:54:07;;;;;;;2.93;2.00;;;;;;;;;;5026525;28;20216;-77
2023/08/08 04:56:32;;;;;;;2.83;1.87;;;;;;;;;;5017794;28;20187;-77
2023/08/08 04:58:57;;;;;;;1.80;1.70;;;;;;;;;;5016651;28;20185;-77
2023/08/08 05:01:22;;;;;;;1.90;1.60;;;;;;;;;;5031009;28;20229;-76
2023/08/08 05:03:48;;;;;;;3.07;2.00;;;;;;;;;;5028920;28;20184;-77
2023/08/08 05:06:13;;;;;;;3.83;2.17;;;;;;;;;;5024932;28;20182;-77
2023/08/08 05:08:38;;;;;;;1.93;1.50;;;;;;;;;;5028761;28;20189;-77
2023/08/08 05:11:04;;;;;;;5.53;2.30;;;;;;;;;;5022848;28;20174;-78
2023/08/08 05:13:29;;;;;;;2.13;1.93;;;;;;;;;;5030304;28;20183;-77
2023/08/08 05:15:54;;;;;;;2.20;2.00;;;;;;;;;;5023918;28;20183;-77
2023/08/08 05:18:19;;;;;;;2.13;1.80;;;;;;;;;;5022238;28;20181;-77
2023/08/08 05:20:44;;;;;;;3.03;1.97;;;;;;;;;;5021429;28;20244;-78
2023/08/08 05:23:10;;;;;;;4.13;2.03;;;;;;;;;;5016864;28;20214;-77
2023/08/08 05:25:35;;;;;;;1.90;1.80;;;;;;;;;;5019315;28;20182;-77
2023/08/08 05:28:00;;;;;;;2.97;2.10;;;;;;;;;;5028149;28;20185;-77
2023/08/08 05:30:25;;;;;;;7.63;1.93;;;;;;;;;;5023787;28;20244;-78
2023/08/08 05:32:51;;;;;;;3.20;1.83;;;;;;;;;;5016519;28;20176;-77
2023/08/08 05:35:19;;;;;;;2.27;1.70;;;;;;;;;;5014279;28;20171;-77
2023/08/08 05:37:44;;;;;;;4.03;2.20;;;;;;;;;;5021093;28;20210;-78
2023/08/08 05:40:10;;;;;;;3.40;1.83;;;;;;;;;;5017744;28;20193;-78
2023/08/08 05:42:35;;;;;;;2.63;2.23;;;;;;;;;;5021624;28;20210;-78
2023/08/08 05:45:00;;;;;;;2.37;2.13;;;;;;;;;;5033034;28;20186;-77
2023/08/08 05:47:26;;;;;;;2.00;1.87;;;;;;;;;;5016871;28;20179;-75
2023/08/08 05:49:51;;;;;;;3.77;2.10;;;;;;;;;;5012833;28;20175;-78
2023/08/08 05:52:16;;;;;;;3.83;2.20;;;;;;;;;;5017157;28;20183;-78
2023/08/08 05:54:41;;;;;;;3.37;2.00;;;;;;;;;;5011974;28;20195;-78
2023/08/08 05:57:07;;;;;;;3.77;2.30;;;;;;;;;;5014909;28;20305;-78
2023/08/08 05:59:32;;;;;;;2.57;2.00;;;;;;;;;;5027063;28;20271;-78
2023/08/08 06:01:58;;;;;;;2.73;1.73;;;;;;;;;;5021451;28;20204;-78
2023/08/08 06:04:23;;;;;;;3.97;2.27;;;;;;;;;;5020144;28;20237;-78
2023/08/08 06:06:49;;;;;;;3.77;2.27;;;;;;;;;;5021126;28;20183;-78
2023/08/08 06:09:14;;;;;;;2.00;1.80;;;;;;;;;;5012578;28;20172;-78
2023/08/08 06:11:39;;;;;;;2.23;1.97;;;;;;;;;;5017165;28;20183;-78
2023/08/08 06:14:05;;;;;;;2.70;2.00;;;;;;;;;;5019939;28;20190;-78
2023/08/08 06:16:33;;;;;;;5.43;1.97;;;;;;;;;;5013657;28;20174;-78
2023/08/08 06:18:58;;;;;;;3.33;1.77;;;;;;;;;;5018719;28;20189;-79
2023/08/08 06:21:23;;;;;;;2.57;2.20;;;;;;;;;;5013425;28;20210;-78
2023/08/08 06:23:49;;;;;;;2.30;2.10;;;;;;;;;;5019434;28;20236;-78
2023/08/08 06:26:14;;;;;;;2.93;1.90;;;;;;;;;;5012332;28;20188;-79
2023/08/08 06:28:39;;;;;;;4.50;2.13;;;;;;;;;;5013172;28;20183;-79
2023/08/08 06:31:05;;;;;;;2.03;1.70;;;;;;;;;;5020770;28;20227;-79
2023/08/08 06:33:30;;;;;;;3.27;2.03;;;;;;;;;;5022295;28;20183;-78
2023/08/08 06:35:55;;;;;;;1.90;1.77;;;;;;;;;;5014431;28;20184;-79
2023/08/08 06:38:21;;;;;;;2.90;2.00;;;;;;;;;;5016638;28;20175;-79
2023/08/08 06:40:46;;;;;;;2.83;1.70;;;;;;;;;;5018422;28;20175;-79
2023/08/08 06:43:11;;;;;;;3.00;1.80;;;;;;;;;;5019070;28;20207;-79
2023/08/08 06:45:36;;;;;;;1.87;1.70;;;;;;;;;;5013763;28;20325;-79
2023/08/08 06:48:02;;;;;;;3.70;1.67;;;;;;;;;;5024293;28;20245;-79
2023/08/08 06:50:27;;;;;;;2.83;2.00;;;;;;;;;;5018728;28;20261;-79
2023/08/08 06:52:53;;;;;;;2.23;1.77;;;;;;;;;;5010630;28;20203;-79
2023/08/08 06:55:18;;;;;;;2.10;1.57;;;;;;;;;;5011371;28;20187;-79
2023/08/08 06:57:43;;;;;;;1.90;1.43;;;;;;;;;;5022088;28;20190;-79
2023/08/08 07:00:10;;;;;;;2.53;1.60;;;;;;;;;;5026509;28;20179;-79
2023/08/08 07:02:35;;;;;;;1.83;1.50;;;;;;;;;;5015252;28;20293;-79
2023/08/08 07:05:01;;;;;;;2.97;2.03;;;;;;;;;;5014160;28;20273;-79
2023/08/08 07:07:26;;;;;;;5.40;1.80;;;;;;;;;;5016908;28;20282;-79
2023/08/08 07:09:51;;;;;;;2.00;1.77;;;;;;;;;;5017095;28;20179;-79
2023/08/08 07:12:16;;;;;;;2.30;1.73;;;;;;;;;;5023048;28;20195;-79
2023/08/08 07:14:42;;;;;;;2.87;1.87;;;;;;;;;;5028058;28;20212;-79
2023/08/08 07:17:07;;;;;;;1.77;1.67;;;;;;;;;;5034601;28;20192;-79
2023/08/08 07:19:32;;;;;;;3.17;2.07;;;;;;;;;;5011440;28;20176;-79
2023/08/08 07:21:57;;;;;;;2.97;2.07;;;;;;;;;;5022467;28;20238;-79
2023/08/08 07:24:26;;;;;;;2.07;1.80;;;;;;;;;;5019914;28;20174;-79
2023/08/08 07:26:51;;;;;;;1.60;1.50;;;;;;;;;;5022194;28;20222;-80
2023/08/08 07:29:17;;;;;;;3.33;1.70;;;;;;;;;;5021638;28;20239;-80
2023/08/08 07:31:42;;;;;;;1.53;1.37;;;;;;;;;;5020128;28;20189;-79
2023/08/08 07:34:08;;;;;;;3.77;1.60;;;;;;;;;;5022083;28;20191;-80
2023/08/08 07:36:33;;;;;;;3.87;1.80;;;;;;;;;;5018273;28;20267;-80
2023/08/08 07:38:59;;;;;;;3.57;1.60;;;;;;;;;;5018007;28;20182;-80
2023/08/08 07:41:26;;;;;;;2.67;1.60;;;;;;;;;;5015399;28;20224;-80
2023/08/08 07:43:51;;;;;;;2.80;1.63;;;;;;;;;;5024013;28;20184;-79
2023/08/08 07:46:16;;;;;;;1.80;1.70;;;;;;;;;;5027541;28;20188;-79
2023/08/08 07:48:42;;;;;;;2.37;1.50;;;;;;;;;;5022206;28;20179;-80
2023/08/08 07:51:07;;;;;;;2.73;1.70;;;;;;;;;;5011067;28;20196;-80
2023/08/08 07:53:32;;;;;;;1.93;1.70;;;;;;;;;;5013649;28;20191;-79
2023/08/08 07:55:57;;;;;;;2.40;1.63;;;;;;;;;;5014418;28;20177;-80
2023/08/08 07:58:25;;;;;;;1.60;1.40;;;;;;;;;;5024297;28;20178;-80
2023/08/08 08:00:51;;;;;;;1.70;1.57;;;;;;;;;;5019603;28;20205;-80
2023/08/08 08:03:17;;;;;;;3.53;1.80;;;;;;;;;;5024814;28;20291;-80
2023/08/08 08:05:42;;;;;;;7.23;2.40;;;;;;;;;;5021351;28;20293;-81
2023/08/08 08:08:07;;;;;;;2.97;1.73;;;;;;;;;;5025430;28;20318;-80
2023/08/08 08:10:33;;;;;;;3.50;1.90;;;;;;;;;;5015532;28;20181;-80
2023/08/08 08:12:58;;;;;;;1.93;1.67;;;;;;;;;;5015486;28;20320;-80
2023/08/08 08:15:24;;;;;;;3.20;1.63;;;;;;;;;;5022151;28;20190;-80
2023/08/08 08:17:49;;;;;;;3.53;2.10;;;;;;;;;;5026364;28;20190;-80
2023/08/08 08:20:14;;;;;;;2.83;1.87;;;;;;;;;;5026011;28;20272;-80
2023/08/08 08:22:40;;;;;;;2.80;1.80;;;;;;;;;;5025285;28;20217;-80
2023/08/08 08:25:07;;;;;;;4.60;1.70;;;;;;;;;;5012880;28;20189;-80
2023/08/08 08:27:33;;;;;;;2.40;1.77;;;;;;;;;;5023174;28;20171;-80
2023/08/08 08:29:58;;;;;;;2.07;1.90;;;;;;;;;;5017436;28;20232;-80
2023/08/08 08:32:23;;;;;;;1.93;1.67;;;;;;;;;;5028114;28;20211;-80
2023/08/08 08:34:49;;;;;;;1.97;1.30;;;;;;;;;;5015089;28;20174;-80
2023/08/08 08:37:14;;;;;;;2.83;1.90;;;;;;;;;;5021733;28;20193;-80
2023/08/08 08:39:39;;;;;;;1.80;1.53;;;;;;;;;;5017458;28;20191;-80
2023/08/08 08:42:05;;;;;;;4.23;1.60;;;;;;;;;;5022573;28;20243;-80
2023/08/08 08:44:31;;;;;;;2.40;1.73;;;;;;;;;;5020595;28;20196;-80
2023/08/08 08:46:58;;;;;;;3.80;1.73;;;;;;;;;;5027539;28;20193;-80
2023/08/08 08:49:24;;;;;;;2.73;1.43;;;;;;;;;;5021705;28;20202;-80
2023/08/08 08:51:49;;;;;;;2.00;1.53;;;;;;;;;;5017864;28;20218;-81
2023/08/08 08:54:15;;;;;;;1.70;1.50;;;;;;;;;;5036184;28;20196;-80
2023/08/08 08:56:41;;;;;;;4.20;1.57;;;;;;;;;;5018765;28;20183;-80
2023/08/08 08:59:07;;;;;;;2.07;1.60;;;;;;;;;;5022921;28;20176;-80
2023/08/08 09:01:32;;;;;;;3.10;1.70;;;;;;;;;;5023922;28;20256;-80
2023/08/08 09:03:58;;;;;;;6.53;1.67;;;;;;;;;;5018905;28;20187;-80
2023/08/08 09:06:23;;;;;;;5.40;1.93;;;;;;;;;;5028272;28;20236;-80
2023/08/08 09:08:48;;;;;;;2.20;1.93;;;;;;;;;;5022967;28;20260;-80
2023/08/08 09:11:13;;;;;;;2.33;1.60;;;;;;;;;;5018640;28;20182;-80
2023/08/08 09:13:39;;;;;;;4.53;1.80;;;;;;;;;;5033493;28;20179;-80
2023/08/08 09:16:08;;;;;;;4.93;2.00;;;;;;;;;;5021501;28;20191;-80
2023/08/08 09:18:33;;;;;;;3.77;1.60;;;;;;;;;;5025617;28;20178;-80
2023/08/08 09:20:59;;;;;;;2.77;1.80;;;;;;;;;;5023671;28;20183;-81
2023/08/08 09:23:24;;;;;;;4.43;1.83;;;;;;;;;;5024621;28;20198;-80
2023/08/08 09:25:50;;;;;;;1.63;1.50;;;;;;;;;;5030000;28;20221;-80
2023/08/08 09:28:15;;;;;;;4.70;2.10;;;;;;;;;;5018277;28;20181;-80
2023/08/08 09:30:41;;;;;;;7.77;1.70;;;;;;;;;;5024771;28;20230;-81
2023/08/08 09:33:07;;;;;;;2.23;1.53;;;;;;;;;;5020464;28;20187;-80
2023/08/08 09:35:32;;;;;;;1.70;1.60;;;;;;;;;;5019444;28;20233;-80
2023/08/08 09:37:57;;;;;;;2.63;1.70;;;;;;;;;;5020801;28;20176;-80
2023/08/08 09:40:23;;;;;;;3.13;1.80;;;;;;;;;;5024257;28;20295;-80
2023/08/08 09:42:50;;;;;;;2.73;1.70;;;;;;;;;;5024621;28;20212;-80
2023/08/08 09:45:15;;;;;;;3.63;1.50;;;;;;;;;;5024495;28;20206;-80
2023/08/08 09:47:41;;;;;;;4.87;1.83;;;;;;;;;;5019157;28;20198;-80
2023/08/08 09:50:07;;;;;;;2.33;1.60;;;;;;;;;;5017907;28;20182;-80
2023/08/08 09:52:35;;;;;;;1.60;1.50;;;;;;;;;;5015891;28;20207;-80
2023/08/08 09:55:01;;;;;;;4.07;2.10;;;;;;;;;;5014980;28;20241;-75
2023/08/08 09:57:26;;;;;;;10.43;4.00;;;;;;;;;;5025072;28;20179;-73
2023/08/08 09:59:52;;;;;;;3.30;2.07;;;;;;;;;;5018144;28;20179;-73
2023/08/08 10:02:17;;;;;;;18.53;4.63;;;;;;;;;;5025502;28;20200;-73
2023/08/08 10:04:44;;;;;;;5.13;1.83;;;;;;;;;;5016020;28;20257;-74
2023/08/08 10:07:10;;;;;;;3.50;1.93;;;;;;;;;;5026581;28;20208;-73
2023/08/08 10:09:37;;;;;;;2.00;1.80;;;;;;;;;;5013187;28;20204;-73
2023/08/08 10:12:02;;;;;;;5.40;1.97;;;;;;;;;;5016790;28;20182;-77
2023/08/08 10:14:31;;;;;;;2.80;1.60;;;;;;;;;;5014653;28;20191;-73
2023/08/08 10:16:57;;;;;;;2.17;1.73;;;;;;;;;;5016987;28;20182;-74
2023/08/08 10:19:23;;;;;;;1.57;1.47;;;;;;;;;;5026071;28;20181;-73
2023/08/08 10:21:48;;;;;;;10.43;3.40;;;;;;;;;;5020254;28;20217;-73
2023/08/08 10:24:19;;;;;;;1.70;1.60;;;;;;;;;;5027252;28;20168;-73
2023/08/08 10:26:57;;;;;;;5.37;1.70;;;;;;;;;;5024625;28;20179;-73
2023/08/08 10:29:24;;;;;;;7.77;2.50;;;;;;;;;;5015511;28;20209;-73
2023/08/08 10:32:07;;;;;;;4.57;1.73;;;;;;;;;;5019603;28;20183;-73
2023/08/08 10:34:42;;;;;;;4.90;2.17;;;;;;;;;;5018850;28;20176;-73
2023/08/08 10:37:12;;;;;;;2.10;1.77;;;;;;;;;;5022530;28;20184;-73
2023/08/08 10:39:38;;;;;;;1.73;1.53;;;;;;;;;;5021160;28;20183;-73
2023/08/08 10:42:04;;;;;;;4.77;1.83;;;;;;;;;;5012728;28;20213;-73
2023/08/08 10:44:29;;;;;;;1.93;1.40;;;;;;;;;;5024631;28;20178;-73
2023/08/08 10:46:55;;;;;;;1.77;1.60;;;;;;;;;;5016393;28;20175;-73
2023/08/08 10:49:20;;;;;;;2.90;1.60;;;;;;;;;;5020134;28;20180;-73
2023/08/08 10:51:47;;;;;;;2.17;1.53;;;;;;;;;;5013318;28;20192;-73
2023/08/08 10:54:16;;;;;;;2.30;1.70;;;;;;;;;;5017327;28;20206;-73
2023/08/08 10:56:51;;;;;;;2.23;1.80;;;;;;;;;;5024113;28;20194;-73
2023/08/08 10:59:21;;;;;;;2.43;1.70;;;;;;;;;;5019022;28;20178;-73
2023/08/08 11:01:47;;;;;;;1.90;1.60;;;;;;;;;;5021272;28;20301;-73
2023/08/08 11:04:13;;;;;;;2.30;1.50;;;;;;;;;;5021879;28;20198;-73
2023/08/08 11:06:39;;;;;;;2.17;1.70;;;;;;;;;;5017048;28;20206;-73
2023/08/08 11:09:07;;;;;;;2.97;1.63;;;;;;;;;;5018270;28;20213;-73
2023/08/08 11:11:42;;;;;;;2.93;1.80;;;;;;;;;;5021364;28;20188;-74
2023/08/08 11:14:11;;;;;;;2.37;1.80;;;;;;;;;;5020821;28;20178;-73
2023/08/08 11:16:37;;;;;;;1.90;1.60;;;;;;;;;;5020433;28;20186;-73
2023/08/08 11:19:02;;;;;;;2.70;1.80;;;;;;;;;;5020206;28;20247;-73
2023/08/08 11:21:27;;;;;;;2.67;1.60;;;;;;;;;;5010654;28;20199;-73
2023/08/08 11:23:53;;;;;;;1.67;1.47;;;;;;;;;;5015162;28;20189;-73
2023/08/08 11:26:19;;;;;;;2.20;1.93;;;;;;;;;;5020511;28;20240;-73
2023/08/08 11:28:51;;;;;;;1.73;1.63;;;;;;;;;;5011923;28;20174;-73
2023/08/08 11:31:17;;;;;;;4.90;2.20;;;;;;;;;;5019125;28;20197;-73
2023/08/08 11:33:42;;;;;;;2.47;1.70;;;;;;;;;;5015286;28;20206;-73
2023/08/08 11:36:08;;;;;;;2.60;1.90;;;;;;;;;;5022433;28;20233;-73
2023/08/08 11:38:34;;;;;;;3.57;1.90;;;;;;;;;;5016265;28;20172;-73
2023/08/08 11:40:59;;;;;;;6.10;1.80;;;;;;;;;;5018345;28;20183;-73
2023/08/08 11:43:25;;;;;;;5.87;2.30;;;;;;;;;;5024970;28;20233;-73
2023/08/08 11:45:52;;;;;;;1.87;1.70;;;;;;;;;;5016148;28;20187;-74
2023/08/08 11:48:20;;;;;;;2.77;1.60;;;;;;;;;;5019067;28;20280;-73
2023/08/08 11:50:46;;;;;;;2.70;1.50;;;;;;;;;;5018179;28;20219;-73
2023/08/08 11:53:11;;;;;;;2.13;1.90;;;;;;;;;;5018818;28;20242;-73
2023/08/08 11:55:37;;;;;;;3.73;2.03;;;;;;;;;;5016975;28;20275;-73
2023/08/08 11:58:02;;;;;;;4.43;2.00;;;;;;;;;;5026067;28;20216;-73
2023/08/08 12:00:29;;;;;;;1.80;1.70;;;;;;;;;;5012101;28;20177;-73
2023/08/08 12:02:55;;;;;;;9.83;3.43;;;;;;;;;;5018190;28;20205;-72
2023/08/08 12:05:22;;;;;;;2.60;2.20;;;;;;;;;;5016009;28;20184;-73
2023/08/08 12:07:48;;;;;;;1.93;1.67;;;;;;;;;;5010880;28;20176;-73
2023/08/08 12:10:14;;;;;;;2.50;1.80;;;;;;;;;;5015063;28;20262;-73
2023/08/08 12:12:39;;;;;;;3.47;2.00;;;;;;;;;;5019800;28;20183;-73
2023/08/08 12:15:08;;;;;;;3.40;1.70;;;;;;;;;;5015393;28;20182;-73
2023/08/08 12:17:34;;;;;;;1.97;1.77;;;;;;;;;;5024259;28;20176;-73
2023/08/08 12:20:00;;;;;;;2.17;1.83;;;;;;;;;;5028847;28;20247;-73
2023/08/08 12:22:25;;;;;;;3.40;2.17;;;;;;;;;;5023523;28;20208;-73
2023/08/08 12:24:50;;;;;;;2.00;1.80;;;;;;;;;;5019105;28;20233;-73
2023/08/08 12:27:15;;;;;;;2.30;2.10;;;;;;;;;;5021528;28;20176;-73
2023/08/08 12:29:41;;;;;;;3.77;2.10;;;;;;;;;;5023808;28;20217;-73
2023/08/08 12:32:07;;;;;;;2.03;1.80;;;;;;;;;;5019855;28;20184;-73
2023/08/08 12:34:33;;;;;;;2.03;1.90;;;;;;;;;;5025845;28;20215;-73
2023/08/08 12:36:58;;;;;;;2.23;1.67;;;;;;;;;;5016050;28;20266;-73
2023/08/08 12:39:23;;;;;;;3.60;2.07;;;;;;;;;;5017629;28;20183;-74
2023/08/08 12:41:48;;;;;;;14.60;2.13;;;;;;;;;;5018723;28;20239;-72
2023/08/08 12:44:14;;;;;;;3.63;2.23;;;;;;;;;;5015805;28;20180;-72
2023/08/08 12:46:39;;;;;;;4.33;2.23;;;;;;;;;;5020037;28;20177;-72
2023/08/08 12:49:05;;;;;;;3.07;1.87;;;;;;;;;;5018214;28;20210;-72
2023/08/08 12:51:30;;;;;;;3.07;1.87;;;;;;;;;;5017204;28;20179;-71
2023/08/08 12:53:55;;;;;;;3.73;2.00;;;;;;;;;;5022021;28;20193;-72
2023/08/08 12:56:20;;;;;;;4.27;2.23;;;;;;;;;;5020179;28;20174;-72
2023/08/08 12:58:46;;;;;;;2.33;2.00;;;;;;;;;;5027347;28;20231;-72
2023/08/08 13:01:11;;;;;;;2.30;1.93;;;;;;;;;;5020171;28;20187;-72
2023/08/08 13:03:37;;;;;;;3.73;2.00;;;;;;;;;;5021397;28;20179;-72
2023/08/08 13:06:02;;;;;;;1.90;1.60;;;;;;;;;;5014109;28;20182;-72
2023/08/08 13:08:27;;;;;;;3.40;1.97;;;;;;;;;;5018262;28;20182;-71
2023/08/08 13:10:53;;;;;;;1.87;1.70;;;;;;;;;;5028870;28;20175;-71
2023/08/08 13:13:18;;;;;;;4.83;1.90;;;;;;;;;;5027839;28;20185;-71
2023/08/08 13:15:45;;;;;;;1.80;1.60;;;;;;;;;;5019343;28;20250;-71
2023/08/08 13:18:10;;;;;;;1.80;1.70;;;;;;;;;;5018062;28;20186;-71
2023/08/08 13:20:35;;;;;;;1.93;1.73;;;;;;;;;;5019519;28;20178;-71
2023/08/08 13:23:01;;;;;;;5.20;2.40;;;;;;;;;;5016584;28;20342;-71
2023/08/08 13:25:26;;;;;;;2.70;1.57;;;;;;;;;;5022723;28;20271;-72
2023/08/08 13:27:51;;;;;;;12.33;3.80;;;;;;;;;;5027532;28;20267;-71
2023/08/08 13:30:16;;;;;;;2.30;1.83;;;;;;;;;;5022096;28;20372;-71
2023/08/08 13:32:41;;;;;;;1.70;1.50;;;;;;;;;;5020436;28;20181;-72
2023/08/08 13:35:07;;;;;;;2.20;1.53;;;;;;;;;;5024586;28;20190;-72
2023/08/08 13:37:32;;;;;;;3.10;1.73;;;;;;;;;;5028955;28;20186;-72
2023/08/08 13:39:57;;;;;;;2.33;1.87;;;;;;;;;;5025457;28;20211;-72
2023/08/08 13:42:23;;;;;;;3.37;1.73;;;;;;;;;;5038029;28;20199;-72
2023/08/08 13:44:48;;;;;;;23.07;3.53;;;;;;;;;;5021958;28;20210;-71
2023/08/08 13:47:13;;;;;;;6.77;2.97;;;;;;;;;;5021133;28;20177;-71
2023/08/08 13:49:38;;;;;;;1.70;1.50;;;;;;;;;;5018843;28;20262;-71
2023/08/08 13:52:04;;;;;;;2.00;1.80;;;;;;;;;;5021446;28;20196;-72
2023/08/08 13:54:29;;;;;;;2.00;1.70;;;;;;;;;;5012873;28;20287;-71
2023/08/08 13:56:54;;;;;;;2.97;1.50;;;;;;;;;;5025894;28;20192;-72
2023/08/08 13:59:19;;;;;;;3.37;2.07;;;;;;;;;;5016920;28;20183;-71
2023/08/08 14:01:44;;;;;;;2.57;1.63;;;;;;;;;;5022950;28;20213;-71
2023/08/08 14:04:10;;;;;;;2.47;1.77;;;;;;;;;;5032071;28;20186;-71
2023/08/08 14:06:35;;;;;;;7.47;2.33;;;;;;;;;;5018242;28;20200;-71
2023/08/08 14:09:00;;;;;;;2.57;1.70;;;;;;;;;;5016038;28;20223;-71
2023/08/08 14:11:25;;;;;;;3.50;1.80;;;;;;;;;;5026136;28;20175;-71
2023/08/08 14:13:51;;;;;;;3.07;1.83;;;;;;;;;;5020299;28;20176;-71
2023/08/08 14:16:16;;;;;;;3.37;2.13;;;;;;;;;;5026336;28;20174;-71
2023/08/08 14:18:42;;;;;;;1.40;1.30;;;;;;;;;;5014922;28;20191;-72
2023/08/08 14:21:07;;;;;;;4.40;1.97;;;;;;;;;;5014336;28;20190;-71
2023/08/08 14:23:32;;;;;;;3.77;1.97;;;;;;;;;;5023850;28;20215;-72
2023/08/08 14:25:57;;;;;;;3.90;2.07;;;;;;;;;;5016852;28;20183;-72
2023/08/08 14:28:23;;;;;;;1.90;1.70;;;;;;;;;;5019088;28;20179;-72
2023/08/08 14:30:48;;;;;;;2.47;1.70;;;;;;;;;;5014841;28;20218;-71
2023/08/08 14:33:14;;;;;;;4.10;1.93;;;;;;;;;;5016686;28;20181;-71
2023/08/08 14:35:39;;;;;;;2.97;1.60;;;;;;;;;;5020754;28;20174;-71
2023/08/08 14:38:05;;;;;;;2.17;1.60;;;;;;;;;;5021088;28;20244;-71
2023/08/08 14:40:31;;;;;;;3.07;1.70;;;;;;;;;;5021162;28;20178;-71
2023/08/08 14:42:57;;;;;;;2.43;2.10;;;;;;;;;;5021996;28;20250;-71
2023/08/08 14:45:23;;;;;;;3.83;1.93;;;;;;;;;;5016816;28;20207;-71
2023/08/08 14:47:48;;;;;;;4.57;1.90;;;;;;;;;;5023177;28;20183;-71
2023/08/08 14:50:14;;;;;;;2.03;1.70;;;;;;;;;;5015600;28;20187;-72
2023/08/08 14:52:39;;;;;;;2.10;1.50;;;;;;;;;;5016684;28;20190;-72
2023/08/08 14:55:04;;;;;;;5.40;1.93;;;;;;;;;;5012315;28;20188;-72
2023/08/08 14:57:30;;;;;;;2.60;1.80;;;;;;;;;;5023543;28;20210;-72
2023/08/08 14:59:55;;;;;;;1.87;1.77;;;;;;;;;;5023055;28;20281;-72
2023/08/08 15:02:20;;;;;;;3.27;2.30;;;;;;;;;;5022525;28;20230;-72
2023/08/08 15:04:45;;;;;;;4.43;2.00;;;;;;;;;;5021263;28;20265;-72
2023/08/08 15:07:11;;;;;;;1.60;1.50;;;;;;;;;;5011609;28;20342;-72
2023/08/08 15:09:37;;;;;;;4.17;1.97;;;;;;;;;;5020538;28;20177;-72
2023/08/08 15:12:03;;;;;;;1.90;1.80;;;;;;;;;;5017376;28;20191;-72
2023/08/08 15:14:28;;;;;;;2.87;2.20;;;;;;;;;;5014446;28;20191;-72
2023/08/08 15:16:53;;;;;;;5.37;1.90;;;;;;;;;;5015844;28;20191;-72
2023/08/08 15:19:19;;;;;;;2.53;1.53;;;;;;;;;;5029385;28;20195;-72
2023/08/08 15:21:44;;;;;;;3.77;1.67;;;;;;;;;;5020544;28;20285;-72
2023/08/08 15:24:10;;;;;;;2.37;1.87;;;;;;;;;;5018685;28;20182;-72
2023/08/08 15:26:35;;;;;;;2.10;1.80;;;;;;;;;;5026979;28;20178;-72
2023/08/08 15:29:00;;;;;;;3.57;1.87;;;;;;;;;;5022356;28;20186;-72
2023/08/08 15:31:25;;;;;;;2.50;1.90;;;;;;;;;;5014849;28;20190;-72
2023/08/08 15:33:51;;;;;;;2.40;1.70;;;;;;;;;;5026913;28;20211;-72
2023/08/08 15:36:16;;;;;;;2.60;1.60;;;;;;;;;;5029183;28;20195;-73
2023/08/08 15:38:41;;;;;;;2.10;1.90;;;;;;;;;;5026213;28;20264;-72
2023/08/08 15:41:06;;;;;;;3.57;1.87;;;;;;;;;;5014955;28;20212;-71
2023/08/08 15:43:32;;;;;;;2.17;1.90;;;;;;;;;;5021049;28;20205;-72
2023/08/08 15:45:57;;;;;;;2.37;1.70;;;;;;;;;;5022778;28;20180;-72
2023/08/08 15:48:23;;;;;;;3.40;1.90;;;;;;;;;;5024324;28;20200;-72
2023/08/08 15:50:48;;;;;;;2.57;1.43;;;;;;;;;;5021261;28;20188;-72
2023/08/08 15:53:13;;;;;;;3.40;1.90;;;;;;;;;;5011955;28;20218;-71
2023/08/08 15:55:38;;;;;;;2.93;1.90;;;;;;;;;;5015285;28;20172;-72
2023/08/08 15:58:04;;;;;;;2.23;1.70;;;;;;;;;;5021418;28;20185;-72
2023/08/08 16:00:29;;;;;;;1.77;1.67;;;;;;;;;;5014186;28;20186;-72
2023/08/08 16:02:54;;;;;;;2.80;1.80;;;;;;;;;;5013548;28;20203;-72
2023/08/08 16:05:20;;;;;;;2.07;1.60;;;;;;;;;;5014081;28;20185;-72
2023/08/08 16:07:45;;;;;;;1.80;1.70;;;;;;;;;;5016389;28;20186;-72
2023/08/08 16:10:10;;;;;;;4.73;1.67;;;;;;;;;;5018555;28;20193;-71
2023/08/08 16:12:36;;;;;;;2.70;1.80;;;;;;;;;;5015722;28;20185;-72
2023/08/08 16:15:01;;;;;;;1.93;1.73;;;;;;;;;;5015351;28;20176;-72
2023/08/08 16:17:27;;;;;;;2.20;1.97;;;;;;;;;;5028046;28;20180;-72
2023/08/08 16:19:52;;;;;;;2.67;1.60;;;;;;;;;;5023733;28;20309;-72
2023/08/08 16:22:17;;;;;;;2.00;1.70;;;;;;;;;;5022695;28;20197;-71
2023/08/08 16:24:42;;;;;;;2.03;1.83;;;;;;;;;;5016494;28;20173;-72
2023/08/08 16:30:36;;;;;;;2.50;1.63;;;;;;;;;;5007248;28;20200;-78
2023/08/08 16:33:01;;;;;;;2.70;1.80;;;;;;;;;;4994914;28;20234;-79
2023/08/08 16:35:26;;;;;;;3.87;1.60;;;;;;;;;;4991772;28;20260;-80
2023/08/08 16:37:51;;;;;;;4.27;2.20;;;;;;;;;;4991116;28;20185;-79
2023/08/08 16:40:16;;;;;;;3.53;1.80;;;;;;;;;;5001620;28;20254;-78
2023/08/08 16:42:42;;;;;;;2.33;1.77;;;;;;;;;;4998807;28;20295;-78
2023/08/08 16:45:07;;;;;;;7.43;2.13;;;;;;;;;;4997932;28;20175;-79
2023/08/08 16:47:33;;;;;;;3.63;1.80;;;;;;;;;;5001235;28;20264;-79
2023/08/08 16:49:58;;;;;;;1.90;1.70;;;;;;;;;;4995290;28;20182;-79
2023/08/08 16:52:23;;;;;;;3.63;1.87;;;;;;;;;;4997938;28;20248;-79
2023/08/08 16:54:48;;;;;;;2.37;1.70;;;;;;;;;;4992639;28;20182;-79
2023/08/08 16:57:14;;;;;;;2.63;1.70;;;;;;;;;;4995034;28;20233;-79
2023/08/08 16:59:39;;;;;;;3.43;1.93;;;;;;;;;;5005083;28;20188;-79
2023/08/08 17:02:04;;;;;;;2.40;1.80;;;;;;;;;;5002541;28;20206;-79
2023/08/08 17:04:29;;;;;;;2.03;1.83;;;;;;;;;;5006572;28;20191;-79
2023/08/08 17:06:54;;;;;;;3.40;2.07;;;;;;;;;;5002808;28;20179;-79
2023/08/08 17:09:20;;;;;;;3.60;1.90;;;;;;;;;;4999869;28;20207;-79
2023/08/08 17:11:45;;;;;;;2.20;2.00;;;;;;;;;;5006578;28;20179;-79
2023/08/08 17:14:10;;;;;;;1.90;1.80;;;;;;;;;;4998052;28;20193;-79
2023/08/08 17:16:37;;;;;;;3.43;2.03;;;;;;;;;;4997690;28;20191;-79
2023/08/08 17:19:03;;;;;;;3.60;2.30;;;;;;;;;;4995534;28;20183;-79
2023/08/08 17:21:28;;;;;;;2.13;1.73;;;;;;;;;;5003449;28;20187;-79
2023/08/08 17:23:54;;;;;;;4.10;2.10;;;;;;;;;;5000759;28;20167;-79
2023/08/08 17:26:19;;;;;;;2.33;2.13;;;;;;;;;;4998015;28;20260;-79
2023/08/08 17:28:46;;;;;;;3.20;2.27;;;;;;;;;;5000437;28;20186;-79
2023/08/08 17:31:11;;;;;;;2.27;1.73;;;;;;;;;;5005338;28;20223;-79
2023/08/08 17:33:37;;;;;;;2.50;1.83;;;;;;;;;;5017977;28;20186;-79
2023/08/08 17:36:02;;;;;;;2.20;2.07;;;;;;;;;;5014550;28;20247;-79
2023/08/08 17:38:28;;;;;;;3.83;2.20;;;;;;;;;;5017464;28;20179;-79
2023/08/08 17:40:53;;;;;;;2.20;2.00;;;;;;;;;;5026738;28;20237;-79
2023/08/08 17:43:18;;;;;;;1.90;1.77;;;;;;;;;;5017494;28;20211;-79
2023/08/08 17:45:44;;;;;;;5.70;2.33;;;;;;;;;;5015758;28;20180;-79
2023/08/08 17:48:09;;;;;;;1.80;1.70;;;;;;;;;;5025698;28;20187;-79
2023/08/08 17:50:34;;;;;;;2.33;2.00;;;;;;;;;;5022404;28;20246;-79
2023/08/08 17:52:59;;;;;;;4.50;2.53;;;;;;;;;;5019432;28;20197;-79
2023/08/08 17:55:24;;;;;;;2.03;1.70;;;;;;;;;;5018448;28;20178;-79
2023/08/08 17:57:50;;;;;;;2.57;2.07;;;;;;;;;;5022121;28;20189;-79
2023/08/08 18:00:15;;;;;;;5.23;2.20;;;;;;;;;;5013441;28;20180;-79
2023/08/08 18:02:41;;;;;;;2.57;1.83;;;;;;;;;;5020881;28;20206;-78
2023/08/08 18:05:06;;;;;;;3.63;2.37;;;;;;;;;;5012099;28;20204;-79
2023/08/08 18:07:31;;;;;;;2.37;1.90;;;;;;;;;;5018562;28;20178;-79
2023/08/08 18:09:57;;;;;;;2.00;1.80;;;;;;;;;;5025410;28;20182;-79
2023/08/08 18:12:22;;;;;;;1.90;1.60;;;;;;;;;;5015740;28;20176;-79
2023/08/08 18:14:48;;;;;;;2.03;1.80;;;;;;;;;;5017737;28;20213;-79
2023/08/08 18:17:13;;;;;;;2.30;2.00;;;;;;;;;;5021925;28;20193;-79
2023/08/08 18:19:39;;;;;;;2.30;1.90;;;;;;;;;;5030659;28;20181;-79
2023/08/08 18:22:05;;;;;;;2.87;1.80;;;;;;;;;;5015294;28;20220;-79
2023/08/08 18:24:31;;;;;;;3.20;2.23;;;;;;;;;;5017433;28;20180;-79
2023/08/08 18:29:33;;;;;;;2.33;2.07;;;;;;;;;;5171796;22;20236;-79
2023/08/08 18:31:59;;;;;;;2.67;1.73;;;;;;;;;;5012120;28;20269;-78
2023/08/08 18:34:24;;;;;;;1.80;1.70;;;;;;;;;;5011552;28;20282;-79
2023/08/08 18:36:50;;;;;;;2.50;1.73;;;;;;;;;;5013575;28;20196;-79
2023/08/08 18:39:15;;;;;;;2.07;1.77;;;;;;;;;;5013148;28;20276;-79
2023/08/08 18:41:40;;;;;;;2.07;1.80;;;;;;;;;;5013889;28;20196;-79
2023/08/08 18:44:06;;;;;;;1.73;1.63;;;;;;;;;;5030613;28;20182;-79
2023/08/08 18:46:33;;;;;;;3.67;1.80;;;;;;;;;;5014234;28;20233;-79
2023/08/08 18:48:58;;;;;;;1.73;1.63;;;;;;;;;;5012228;28;20198;-79
2023/08/08 18:51:24;;;;;;;1.87;1.70;;;;;;;;;;5013140;28;20172;-79
2023/08/08 18:53:49;;;;;;;1.90;1.80;;;;;;;;;;5013524;28;20168;-79
2023/08/08 18:56:14;;;;;;;4.17;1.90;;;;;;;;;;5012797;28;20262;-79
2023/08/08 18:58:40;;;;;;;2.93;2.33;;;;;;;;;;5011023;28;20236;-79
2023/08/08 19:01:05;;;;;;;2.33;2.07;;;;;;;;;;5027319;28;20175;-79
2023/08/08 19:03:31;;;;;;;1.60;1.50;;;;;;;;;;5012763;28;20288;-79
2023/08/08 19:05:56;;;;;;;2.60;1.90;;;;;;;;;;5011332;28;20184;-79
2023/08/08 19:08:21;;;;;;;2.37;1.90;;;;;;;;;;5025288;28;20181;-78